sensor_id;sensor_type;location;lat;lon;timestamp;pressure;altitude;pressure_sealevel;temperature;humidity
77867;BME280;67271;59.120;37.970;2023-05-10T00:03:15;100957.81;;;11.35;47.22
77867;BME280;67271;59.120;37.970;2023-05-10T00:05:41;100958.84;;;11.34;47.04
77867;BME280;67271;59.120;37.970;2023-05-10T00:08:07;100961.19;;;11.37;47.35
77867;BME280;67271;59.120;37.970;2023-05-10T00:10:33;100959.81;;;11.41;47.46
77867;BME280;67271;59.120;37.970;2023-05-10T00:12:59;100961.72;;;11.32;47.84
77867;BME280;67271;59.120;37.970;2023-05-10T00:15:25;100963.66;;;11.23;47.67
77867;BME280;67271;59.120;37.970;2023-05-10T00:17:51;100962.88;;;11.15;47.82
77867;BME280;67271;59.120;37.970;2023-05-10T00:20:17;100960.94;;;11.23;47.57
77867;BME280;67271;59.120;37.970;2023-05-10T00:22:43;100960.94;;;11.23;48.09
77867;BME280;67271;59.120;37.970;2023-05-10T00:25:09;100968.34;;;11.30;47.76
77867;BME280;67271;59.120;37.970;2023-05-10T00:27:35;100961.72;;;11.32;47.73
77867;BME280;67271;59.120;37.970;2023-05-10T00:30:01;100960.16;;;11.38;47.62
77867;BME280;67271;59.120;37.970;2023-05-10T00:32:29;100964.66;;;11.45;47.36
77867;BME280;67271;59.120;37.970;2023-05-10T00:34:55;100962.50;;;11.41;47.66
77867;BME280;67271;59.120;37.970;2023-05-10T00:37:21;100966.19;;;11.48;47.58
77867;BME280;67271;59.120;37.970;2023-05-10T00:39:47;100967.25;;;11.39;48.39
77867;BME280;67271;59.120;37.970;2023-05-10T00:42:12;100963.25;;;11.35;47.86
77867;BME280;67271;59.120;37.970;2023-05-10T00:44:38;100964.63;;;11.31;48.00
77867;BME280;67271;59.120;37.970;2023-05-10T00:47:05;100969.75;;;11.25;48.09
77867;BME280;67271;59.120;37.970;2023-05-10T00:49:31;100970.47;;;11.19;48.50
77867;BME280;67271;59.120;37.970;2023-05-10T00:51:57;100963.53;;;11.17;48.18
77867;BME280;67271;59.120;37.970;2023-05-10T00:54:23;100959.25;;;11.22;48.56
77867;BME280;67271;59.120;37.970;2023-05-10T00:56:51;100966.91;;;11.19;49.17
77867;BME280;67271;59.120;37.970;2023-05-10T00:59:17;100966.13;;;11.10;48.96
77867;BME280;67271;59.120;37.970;2023-05-10T01:01:47;100972.28;;;11.04;49.30
77867;BME280;67271;59.120;37.970;2023-05-10T01:04:13;100970.94;;;11.00;49.79
77867;BME280;67271;59.120;37.970;2023-05-10T01:06:41;100972.19;;;10.90;49.62
77867;BME280;67271;59.120;37.970;2023-05-10T01:09:07;100967.84;;;10.80;50.19
77867;BME280;67271;59.120;37.970;2023-05-10T01:11:38;100964.59;;;10.85;50.45
77867;BME280;67271;59.120;37.970;2023-05-10T01:14:05;100964.28;;;10.80;50.63
77867;BME280;67271;59.120;37.970;2023-05-10T01:16:36;100964.03;;;10.67;51.49
77867;BME280;67271;59.120;37.970;2023-05-10T01:19:04;100958.66;;;10.59;51.55
77867;BME280;67271;59.120;37.970;2023-05-10T01:30:27;100961.41;;;10.51;52.31
77867;BME280;67271;59.120;37.970;2023-05-10T01:33:25;100954.09;;;10.59;51.99
77867;BME280;67271;59.120;37.970;2023-05-10T01:36:03;100960.69;;;10.57;52.00
77867;BME280;67271;59.120;37.970;2023-05-10T01:38:43;100955.91;;;10.67;52.02
77867;BME280;67271;59.120;37.970;2023-05-10T01:41:26;100963.38;;;10.65;51.73
77867;BME280;67271;59.120;37.970;2023-05-10T01:44:01;100961.84;;;10.62;52.27
77867;BME280;67271;59.120;37.970;2023-05-10T01:46:35;100957.53;;;10.76;51.57
77867;BME280;67271;59.120;37.970;2023-05-10T01:49:11;100961.66;;;10.95;50.92
77867;BME280;67271;59.120;37.970;2023-05-10T01:51:51;100965.16;;;11.03;50.58
77867;BME280;67271;59.120;37.970;2023-05-10T01:54:20;100968.47;;;11.13;50.48
77867;BME280;67271;59.120;37.970;2023-05-10T01:56:57;100962.75;;;11.31;50.29
77867;BME280;67271;59.120;37.970;2023-05-10T01:59:28;100962.13;;;11.44;49.74
77867;BME280;67271;59.120;37.970;2023-05-10T02:01:58;100963.47;;;11.48;49.97
77867;BME280;67271;59.120;37.970;2023-05-10T02:04:26;100957.56;;;11.44;50.01
77867;BME280;67271;59.120;37.970;2023-05-10T02:06:53;100964.13;;;11.50;49.74
77867;BME280;67271;59.120;37.970;2023-05-10T02:09:21;100967.56;;;11.44;49.66
77867;BME280;67271;59.120;37.970;2023-05-10T02:11:50;100961.50;;;11.42;50.08
77867;BME280;67271;59.120;37.970;2023-05-10T02:14:16;100959.84;;;11.55;49.83
77867;BME280;67271;59.120;37.970;2023-05-10T02:16:44;100963.56;;;11.54;49.65
77867;BME280;67271;59.120;37.970;2023-05-10T02:19:12;100956.47;;;11.53;50.01
77867;BME280;67271;59.120;37.970;2023-05-10T02:21:40;100956.28;;;11.55;50.12
77867;BME280;67271;59.120;37.970;2023-05-10T02:24:07;100954.19;;;11.65;50.12
77867;BME280;67271;59.120;37.970;2023-05-10T02:26:35;100947.66;;;11.74;50.42
77867;BME280;67271;59.120;37.970;2023-05-10T02:29:02;100952.91;;;11.76;49.59
77867;BME280;67271;59.120;37.970;2023-05-10T02:31:31;100958.84;;;11.71;49.77
77867;BME280;67271;59.120;37.970;2023-05-10T02:33:59;100957.25;;;11.62;50.09
77867;BME280;67271;59.120;37.970;2023-05-10T02:36:27;100961.47;;;11.64;49.47
77867;BME280;67271;59.120;37.970;2023-05-10T02:38:53;100959.88;;;11.70;49.27
77867;BME280;67271;59.120;37.970;2023-05-10T02:41:20;100956.09;;;11.79;49.14
77867;BME280;67271;59.120;37.970;2023-05-10T02:43:50;100955.19;;;11.87;49.50
77867;BME280;67271;59.120;37.970;2023-05-10T02:46:19;100957.03;;;11.86;48.93
77867;BME280;67271;59.120;37.970;2023-05-10T02:48:45;100953.59;;;11.92;49.17
77867;BME280;67271;59.120;37.970;2023-05-10T02:51:12;100955.09;;;11.95;49.30
77867;BME280;67271;59.120;37.970;2023-05-10T02:53:43;100951.63;;;12.01;49.36
77867;BME280;67271;59.120;37.970;2023-05-10T02:56:24;100951.06;;;12.06;49.51
77867;BME280;67271;59.120;37.970;2023-05-10T02:58:52;100949.84;;;12.08;49.23
77867;BME280;67271;59.120;37.970;2023-05-10T03:01:18;100947.91;;;12.17;48.49
77867;BME280;67271;59.120;37.970;2023-05-10T03:03:43;100944.34;;;12.31;48.59
77867;BME280;67271;59.120;37.970;2023-05-10T03:06:09;100946.38;;;12.29;48.74
77867;BME280;67271;59.120;37.970;2023-05-10T03:08:35;100938.25;;;12.29;48.78
77867;BME280;67271;59.120;37.970;2023-05-10T03:16:18;100942.03;;;12.49;48.75
77867;BME280;67271;59.120;37.970;2023-05-10T03:18:51;100941.59;;;12.46;48.80
77867;BME280;67271;59.120;37.970;2023-05-10T03:21:22;100937.84;;;12.47;48.38
77867;BME280;67271;59.120;37.970;2023-05-10T03:23:59;100945.91;;;12.55;48.47
77867;BME280;67271;59.120;37.970;2023-05-10T03:26:30;100943.06;;;12.63;48.68
77867;BME280;67271;59.120;37.970;2023-05-10T03:29:05;100941.72;;;12.73;48.00
77867;BME280;67271;59.120;37.970;2023-05-10T03:31:32;100949.00;;;12.88;47.22
77867;BME280;67271;59.120;37.970;2023-05-10T03:33:59;100952.97;;;13.06;46.85
77867;BME280;67271;59.120;37.970;2023-05-10T03:36:26;100954.41;;;13.24;46.18
77867;BME280;67271;59.120;37.970;2023-05-10T03:38:52;100950.81;;;13.38;46.25
77867;BME280;67271;59.120;37.970;2023-05-10T03:41:18;100952.13;;;13.48;46.53
77867;BME280;67271;59.120;37.970;2023-05-10T03:43:44;100947.34;;;13.50;46.66
77867;BME280;67271;59.120;37.970;2023-05-10T03:46:10;100957.44;;;13.56;46.17
77867;BME280;67271;59.120;37.970;2023-05-10T03:48:36;100953.38;;;13.67;45.38
77867;BME280;67271;59.120;37.970;2023-05-10T03:51:02;100953.41;;;13.74;44.22
77867;BME280;67271;59.120;37.970;2023-05-10T03:53:27;100963.78;;;13.64;43.52
77867;BME280;67271;59.120;37.970;2023-05-10T03:55:53;100958.75;;;13.61;43.37
77867;BME280;67271;59.120;37.970;2023-05-10T03:58:19;100953.31;;;13.61;42.96
77867;BME280;67271;59.120;37.970;2023-05-10T04:00:45;100957.06;;;13.60;42.58
77867;BME280;67271;59.120;37.970;2023-05-10T04:03:14;100966.75;;;13.69;42.00
77867;BME280;67271;59.120;37.970;2023-05-10T04:05:40;100955.16;;;13.81;41.57
77867;BME280;67271;59.120;37.970;2023-05-10T04:08:06;100957.66;;;14.11;40.99
77867;BME280;67271;59.120;37.970;2023-05-10T04:10:32;100962.34;;;14.30;40.31
77867;BME280;67271;59.120;37.970;2023-05-10T04:12:58;100953.84;;;14.40;40.23
77867;BME280;67271;59.120;37.970;2023-05-10T04:15:24;100963.56;;;14.49;40.11
77867;BME280;67271;59.120;37.970;2023-05-10T04:17:50;100956.03;;;14.51;39.42
77867;BME280;67271;59.120;37.970;2023-05-10T04:20:16;100956.03;;;14.51;39.51
77867;BME280;67271;59.120;37.970;2023-05-10T04:22:42;100958.34;;;14.60;39.67
77867;BME280;67271;59.120;37.970;2023-05-10T04:25:08;100960.47;;;14.65;39.13
77867;BME280;67271;59.120;37.970;2023-05-10T04:27:34;100966.16;;;14.77;38.94
77867;BME280;67271;59.120;37.970;2023-05-10T04:30:01;100972.69;;;14.89;39.38
77867;BME280;67271;59.120;37.970;2023-05-10T04:32:27;100969.00;;;15.03;39.44
77867;BME280;67271;59.120;37.970;2023-05-10T04:34:53;100967.97;;;15.17;38.90
77867;BME280;67271;59.120;37.970;2023-05-10T04:37:20;100970.06;;;15.15;38.45
77867;BME280;67271;59.120;37.970;2023-05-10T04:39:46;100969.66;;;15.18;38.36
77867;BME280;67271;59.120;37.970;2023-05-10T04:42:12;100972.16;;;15.26;37.69
77867;BME280;67271;59.120;37.970;2023-05-10T04:44:40;100970.28;;;15.27;37.33
77867;BME280;67271;59.120;37.970;2023-05-10T04:47:06;100973.88;;;15.34;37.24
77867;BME280;67271;59.120;37.970;2023-05-10T04:49:32;100973.47;;;15.43;36.90
77867;BME280;67271;59.120;37.970;2023-05-10T04:51:58;100967.63;;;15.53;36.59
77867;BME280;67271;59.120;37.970;2023-05-10T04:54:24;100970.56;;;15.58;36.48
77867;BME280;67271;59.120;37.970;2023-05-10T04:56:50;100973.94;;;15.60;36.29
77867;BME280;67271;59.120;37.970;2023-05-10T04:59:16;100974.34;;;15.57;36.12
77867;BME280;67271;59.120;37.970;2023-05-10T05:01:41;100970.38;;;15.53;36.27
77867;BME280;67271;59.120;37.970;2023-05-10T05:04:07;100967.44;;;15.55;35.92
77867;BME280;67271;59.120;37.970;2023-05-10T05:06:33;100964.72;;;15.55;35.83
77867;BME280;67271;59.120;37.970;2023-05-10T05:08:59;100964.72;;;15.61;35.60
77867;BME280;67271;59.120;37.970;2023-05-10T05:11:25;100967.22;;;15.69;35.27
77867;BME280;67271;59.120;37.970;2023-05-10T05:13:51;100962.59;;;15.96;35.13
77867;BME280;67271;59.120;37.970;2023-05-10T05:16:17;100961.25;;;16.25;35.02
77867;BME280;67271;59.120;37.970;2023-05-10T05:18:43;100961.88;;;16.34;34.83
77867;BME280;67271;59.120;37.970;2023-05-10T05:21:18;100958.72;;;16.43;34.51
77867;BME280;67271;59.120;37.970;2023-05-10T05:23:45;100958.66;;;16.63;34.28
77867;BME280;67271;59.120;37.970;2023-05-10T05:26:11;100961.75;;;16.80;34.26
77867;BME280;67271;59.120;37.970;2023-05-10T05:28:37;100952.53;;;17.12;33.89
77867;BME280;67271;59.120;37.970;2023-05-10T05:31:07;100956.75;;;17.39;33.49
77867;BME280;67271;59.120;37.970;2023-05-10T05:33:33;100949.88;;;17.62;33.42
77867;BME280;67271;59.120;37.970;2023-05-10T05:36:03;100953.88;;;17.66;33.54
77867;BME280;67271;59.120;37.970;2023-05-10T05:38:29;100952.28;;;17.76;33.83
77867;BME280;67271;59.120;37.970;2023-05-10T05:40:55;100950.66;;;17.94;34.05
77867;BME280;67271;59.120;37.970;2023-05-10T05:43:24;100949.03;;;18.11;34.43
77867;BME280;67271;59.120;37.970;2023-05-10T05:45:52;100944.69;;;18.22;34.97
77867;BME280;67271;59.120;37.970;2023-05-10T05:48:19;100946.50;;;18.28;35.01
77867;BME280;67271;59.120;37.970;2023-05-10T05:50:45;100945.16;;;18.37;34.94
77867;BME280;67271;59.120;37.970;2023-05-10T05:53:12;100941.44;;;18.31;35.19
77867;BME280;67271;59.120;37.970;2023-05-10T05:55:38;100946.69;;;18.33;34.67
77867;BME280;67271;59.120;37.970;2023-05-10T05:58:03;100945.25;;;18.67;34.52
77867;BME280;67271;59.120;37.970;2023-05-10T06:00:29;100934.47;;;19.13;34.04
77867;BME280;67271;59.120;37.970;2023-05-10T06:02:55;100943.13;;;19.40;33.63
77867;BME280;67271;59.120;37.970;2023-05-10T06:05:21;100943.47;;;19.85;33.13
77867;BME280;67271;59.120;37.970;2023-05-10T06:07:53;100943.97;;;20.40;32.55
77867;BME280;67271;59.120;37.970;2023-05-10T06:10:22;100931.53;;;20.78;32.04
77867;BME280;67271;59.120;37.970;2023-05-10T06:12:48;100939.09;;;20.71;31.92
77867;BME280;67271;59.120;37.970;2023-05-10T06:15:14;100937.13;;;20.55;32.35
77867;BME280;67271;59.120;37.970;2023-05-10T06:17:40;100941.44;;;20.51;32.24
77867;BME280;67271;59.120;37.970;2023-05-10T06:20:06;100939.78;;;20.26;31.88
77867;BME280;67271;59.120;37.970;2023-05-10T06:22:33;100940.97;;;20.42;31.68
77867;BME280;67271;59.120;37.970;2023-05-10T06:24:58;100931.38;;;21.13;30.77
77867;BME280;67271;59.120;37.970;2023-05-10T06:27:24;100932.81;;;21.15;30.49
77867;BME280;67271;59.120;37.970;2023-05-10T06:29:50;100938.03;;;21.29;30.26
77867;BME280;67271;59.120;37.970;2023-05-10T06:32:16;100938.94;;;20.89;30.21
77867;BME280;67271;59.120;37.970;2023-05-10T06:34:42;100941.22;;;20.40;30.56
77867;BME280;67271;59.120;37.970;2023-05-10T06:37:09;100934.22;;;20.73;30.05
77867;BME280;67271;59.120;37.970;2023-05-10T06:39:35;100933.13;;;21.31;29.23
77867;BME280;67271;59.120;37.970;2023-05-10T06:42:00;100929.22;;;21.93;28.43
77867;BME280;67271;59.120;37.970;2023-05-10T06:44:31;100932.22;;;22.47;27.69
77867;BME280;67271;59.120;37.970;2023-05-10T06:46:57;100934.16;;;22.90;26.95
77867;BME280;67271;59.120;37.970;2023-05-10T06:49:23;100935.47;;;23.36;26.98
77867;BME280;67271;59.120;37.970;2023-05-10T06:51:49;100936.03;;;23.97;26.58
77867;BME280;67271;59.120;37.970;2023-05-10T06:54:15;100935.94;;;24.29;26.40
77867;BME280;67271;59.120;37.970;2023-05-10T06:56:41;100932.06;;;24.20;26.55
77867;BME280;67271;59.120;37.970;2023-05-10T06:59:07;100936.03;;;24.02;26.82
77867;BME280;67271;59.120;37.970;2023-05-10T07:01:33;100932.19;;;23.39;26.94
77867;BME280;67271;59.120;37.970;2023-05-10T07:03:58;100932.09;;;23.29;27.34
77867;BME280;67271;59.120;37.970;2023-05-10T07:06:24;100934.75;;;23.19;26.95
77867;BME280;67271;59.120;37.970;2023-05-10T07:08:50;100932.19;;;23.12;26.45
77867;BME280;67271;59.120;37.970;2023-05-10T07:11:16;100922.28;;;23.16;26.51
77867;BME280;67271;59.120;37.970;2023-05-10T07:13:42;100935.06;;;23.23;26.19
77867;BME280;67271;59.120;37.970;2023-05-10T07:16:10;100937.75;;;23.17;26.15
77867;BME280;67271;59.120;37.970;2023-05-10T07:18:36;100922.59;;;22.93;26.49
77867;BME280;67271;59.120;37.970;2023-05-10T07:21:05;100927.22;;;22.88;26.46
77867;BME280;67271;59.120;37.970;2023-05-10T07:23:31;100931.06;;;22.87;26.43
77867;BME280;67271;59.120;37.970;2023-05-10T07:25:57;100925.44;;;22.98;26.20
77867;BME280;67271;59.120;37.970;2023-05-10T07:28:23;100919.56;;;22.95;26.11
77867;BME280;67271;59.120;37.970;2023-05-10T07:30:51;100923.00;;;22.80;26.11
77867;BME280;67271;59.120;37.970;2023-05-10T07:33:17;100922.59;;;22.93;25.43
77867;BME280;67271;59.120;37.970;2023-05-10T07:35:43;100919.59;;;23.22;25.08
77867;BME280;67271;59.120;37.970;2023-05-10T07:38:09;100928.50;;;23.29;25.32
77867;BME280;67271;59.120;37.970;2023-05-10T07:40:36;100911.72;;;23.08;25.05
77867;BME280;67271;59.120;37.970;2023-05-10T07:43:03;100925.50;;;23.08;24.91
77867;BME280;67271;59.120;37.970;2023-05-10T07:45:28;100924.59;;;23.25;24.79
77867;BME280;67271;59.120;37.970;2023-05-10T07:47:54;100916.44;;;23.08;25.02
77867;BME280;67271;59.120;37.970;2023-05-10T07:50:20;100916.34;;;23.03;24.82
77867;BME280;67271;59.120;37.970;2023-05-10T07:52:47;100914.69;;;23.02;25.21
77867;BME280;67271;59.120;37.970;2023-05-10T07:55:13;100914.81;;;22.85;25.06
77867;BME280;67271;59.120;37.970;2023-05-10T07:57:39;100922.47;;;22.61;24.80
77867;BME280;67271;59.120;37.970;2023-05-10T08:00:06;100918.16;;;22.27;25.21
77867;BME280;67271;59.120;37.970;2023-05-10T08:02:38;100916.22;;;21.72;25.10
77867;BME280;67271;59.120;37.970;2023-05-10T08:05:05;100913.22;;;21.12;25.21
77867;BME280;67271;59.120;37.970;2023-05-10T08:07:31;100915.63;;;20.80;25.85
77867;BME280;67271;59.120;37.970;2023-05-10T08:09:57;100915.81;;;20.62;26.14
77867;BME280;67271;59.120;37.970;2023-05-10T08:12:22;100913.94;;;20.51;26.03
77867;BME280;67271;59.120;37.970;2023-05-10T08:14:48;100917.66;;;20.44;25.93
77867;BME280;67271;59.120;37.970;2023-05-10T08:17:14;100918.75;;;20.20;25.77
77867;BME280;67271;59.120;37.970;2023-05-10T08:19:40;100913.16;;;19.92;25.81
77867;BME280;67271;59.120;37.970;2023-05-10T08:22:06;100906.59;;;19.81;25.86
77867;BME280;67271;59.120;37.970;2023-05-10T08:24:32;100905.13;;;19.79;26.01
77867;BME280;67271;59.120;37.970;2023-05-10T08:27:00;100903.59;;;19.94;25.75
77867;BME280;67271;59.120;37.970;2023-05-10T08:29:26;100899.03;;;20.12;25.43
77867;BME280;67271;59.120;37.970;2023-05-10T08:31:52;100903.22;;;20.14;25.23
77867;BME280;67271;59.120;37.970;2023-05-10T08:34:17;100897.59;;;20.09;25.52
77867;BME280;67271;59.120;37.970;2023-05-10T08:36:43;100896.25;;;20.23;25.36
77867;BME280;67271;59.120;37.970;2023-05-10T08:39:09;100889.94;;;20.23;25.51
77867;BME280;67271;59.120;37.970;2023-05-10T08:41:36;100900.00;;;20.05;25.70
77867;BME280;67271;59.120;37.970;2023-05-10T08:44:04;100898.94;;;20.06;25.29
77867;BME280;67271;59.120;37.970;2023-05-10T08:46:33;100892.47;;;20.01;25.59
77867;BME280;67271;59.120;37.970;2023-05-10T08:49:02;100894.38;;;20.12;25.48
77867;BME280;67271;59.120;37.970;2023-05-10T08:51:30;100890.28;;;20.26;25.40
77867;BME280;67271;59.120;37.970;2023-05-10T08:53:59;100883.34;;;20.24;25.54
77867;BME280;67271;59.120;37.970;2023-05-10T08:56:26;100891.19;;;19.92;25.42
77867;BME280;67271;59.120;37.970;2023-05-10T08:58:52;100890.44;;;19.85;25.56
77867;BME280;67271;59.120;37.970;2023-05-10T09:01:18;100887.00;;;19.89;25.24
77867;BME280;67271;59.120;37.970;2023-05-10T09:03:46;100883.41;;;19.89;25.44
77867;BME280;67271;59.120;37.970;2023-05-10T09:06:12;100872.66;;;19.87;25.41
77867;BME280;67271;59.120;37.970;2023-05-10T09:08:40;100872.44;;;19.77;25.29
77867;BME280;67271;59.120;37.970;2023-05-10T09:11:07;100876.97;;;19.71;24.96
77867;BME280;67271;59.120;37.970;2023-05-10T09:13:35;100868.72;;;19.60;24.88
77867;BME280;67271;59.120;37.970;2023-05-10T09:16:02;100870.03;;;19.81;25.25
77867;BME280;67271;59.120;37.970;2023-05-10T09:18:28;100866.69;;;19.90;25.09
77867;BME280;67271;59.120;37.970;2023-05-10T09:20:54;100861.66;;;19.87;25.00
77867;BME280;67271;59.120;37.970;2023-05-10T09:23:20;100863.47;;;19.70;25.12
77867;BME280;67271;59.120;37.970;2023-05-10T09:25:46;100858.34;;;19.50;25.33
77867;BME280;67271;59.120;37.970;2023-05-10T09:28:12;100855.56;;;19.39;25.59
77867;BME280;67271;59.120;37.970;2023-05-10T09:30:38;100859.00;;;19.34;26.09
77867;BME280;67271;59.120;37.970;2023-05-10T09:33:04;100858.16;;;19.33;26.31
77867;BME280;67271;59.120;37.970;2023-05-10T09:35:32;100856.13;;;19.29;26.12
77867;BME280;67271;59.120;37.970;2023-05-10T09:38:05;100844.56;;;19.27;26.29
77867;BME280;67271;59.120;37.970;2023-05-10T09:40:31;100854.91;;;19.25;26.54
77867;BME280;67271;59.120;37.970;2023-05-10T09:45:29;100841.47;;;19.35;26.59
77867;BME280;67271;59.120;37.970;2023-05-10T09:47:56;100835.19;;;19.58;26.41
77867;BME280;67271;59.120;37.970;2023-05-10T09:50:22;100839.47;;;19.65;26.19
77867;BME280;67271;59.120;37.970;2023-05-10T09:52:56;100835.56;;;19.61;26.28
77867;BME280;67271;59.120;37.970;2023-05-10T09:58:07;100825.84;;;19.24;26.74
77867;BME280;67271;59.120;37.970;2023-05-10T10:00:37;100828.22;;;19.32;26.46
77867;BME280;67271;59.120;37.970;2023-05-10T10:03:04;100827.84;;;19.40;26.75
77867;BME280;67271;59.120;37.970;2023-05-10T10:05:32;100825.16;;;19.52;26.72
77867;BME280;67271;59.120;37.970;2023-05-10T10:07:59;100832.03;;;19.43;27.08
77867;BME280;67271;59.120;37.970;2023-05-10T10:10:26;100829.88;;;19.33;26.81
77867;BME280;67271;59.120;37.970;2023-05-10T10:12:53;100818.19;;;19.38;26.79
77867;BME280;67271;59.120;37.970;2023-05-10T10:15:23;100822.28;;;19.58;26.56
77867;BME280;67271;59.120;37.970;2023-05-10T10:17:50;100811.16;;;19.88;26.44
77867;BME280;67271;59.120;37.970;2023-05-10T10:20:18;100812.41;;;20.09;26.21
77867;BME280;67271;59.120;37.970;2023-05-10T10:22:44;100810.63;;;20.15;26.24
77867;BME280;67271;59.120;37.970;2023-05-10T10:25:15;100809.88;;;20.19;26.31
77867;BME280;67271;59.120;37.970;2023-05-10T10:35:23;100807.25;;;20.36;26.43
77867;BME280;67271;59.120;37.970;2023-05-10T10:37:50;100798.41;;;20.22;26.37
77867;BME280;67271;59.120;37.970;2023-05-10T10:40:24;100806.53;;;20.29;26.25
77867;BME280;67271;59.120;37.970;2023-05-10T10:42:51;100801.88;;;20.58;26.15
77867;BME280;67271;59.120;37.970;2023-05-10T10:45:19;100802.56;;;20.65;26.15
77867;BME280;67271;59.120;37.970;2023-05-10T10:47:45;100805.91;;;20.83;26.00
77867;BME280;67271;59.120;37.970;2023-05-10T10:50:11;100801.09;;;20.74;25.59
77867;BME280;67271;59.120;37.970;2023-05-10T10:52:42;100799.84;;;20.81;25.85
77867;BME280;67271;59.120;37.970;2023-05-10T10:55:18;100808.63;;;20.95;25.71
77867;BME280;67271;59.120;37.970;2023-05-10T10:57:49;100804.06;;;21.17;25.85
77867;BME280;67271;59.120;37.970;2023-05-10T11:00:25;100798.72;;;21.28;25.44
77867;BME280;67271;59.120;37.970;2023-05-10T11:03:04;100799.28;;;21.13;25.74
77867;BME280;67271;59.120;37.970;2023-05-10T11:08:25;100780.84;;;21.47;25.57
77867;BME280;67271;59.120;37.970;2023-05-10T11:10:50;100788.72;;;21.21;25.85
77867;BME280;67271;59.120;37.970;2023-05-10T11:13:47;100786.59;;;20.95;25.83
77867;BME280;67271;59.120;37.970;2023-05-10T11:16:19;100784.25;;;20.87;25.80
77867;BME280;67271;59.120;37.970;2023-05-10T11:19:07;100788.56;;;20.83;26.02
77867;BME280;67271;59.120;37.970;2023-05-10T11:21:46;100780.72;;;21.20;25.81
77867;BME280;67271;59.120;37.970;2023-05-10T11:24:26;100775.41;;;21.52;25.83
77867;BME280;67271;59.120;37.970;2023-05-10T11:26:53;100781.22;;;21.72;25.19
77867;BME280;67271;59.120;37.970;2023-05-10T11:29:19;100779.06;;;20.91;25.64
77867;BME280;67271;59.120;37.970;2023-05-10T11:31:47;100773.09;;;20.48;25.98
77867;BME280;67271;59.120;37.970;2023-05-10T11:34:30;100777.16;;;20.74;25.73
77867;BME280;67271;59.120;37.970;2023-05-10T11:36:59;100777.69;;;21.05;25.71
77867;BME280;67271;59.120;37.970;2023-05-10T11:39:29;100784.84;;;21.06;25.52
77867;BME280;67271;59.120;37.970;2023-05-10T11:41:56;100773.41;;;20.80;25.96
77867;BME280;67271;59.120;37.970;2023-05-10T11:44:23;100777.00;;;20.81;25.99
77867;BME280;67271;59.120;37.970;2023-05-10T11:46:49;100763.50;;;20.96;25.96
77867;BME280;67271;59.120;37.970;2023-05-10T11:49:15;100769.66;;;21.37;25.46
77867;BME280;67271;59.120;37.970;2023-05-10T11:51:41;100759.75;;;21.74;25.26
77867;BME280;67271;59.120;37.970;2023-05-10T11:54:11;100762.19;;;21.92;25.01
77867;BME280;67271;59.120;37.970;2023-05-10T11:56:38;100764.59;;;22.06;25.08
77867;BME280;67271;59.120;37.970;2023-05-10T11:59:05;100751.84;;;21.61;25.31
77867;BME280;67271;59.120;37.970;2023-05-10T12:01:31;100754.56;;;21.56;25.29
77867;BME280;67271;59.120;37.970;2023-05-10T12:03:57;100753.47;;;21.57;25.63
77867;BME280;67271;59.120;37.970;2023-05-10T12:06:32;100753.34;;;21.69;25.27
77867;BME280;67271;59.120;37.970;2023-05-10T12:09:06;100746.38;;;21.44;25.37
77867;BME280;67271;59.120;37.970;2023-05-10T12:11:37;100738.47;;;21.31;25.28
77867;BME280;67271;59.120;37.970;2023-05-10T12:14:04;100743.81;;;21.21;25.38
77867;BME280;67271;59.120;37.970;2023-05-10T12:16:30;100735.47;;;21.16;25.57
77867;BME280;67271;59.120;37.970;2023-05-10T12:18:58;100733.66;;;20.88;25.79
77867;BME280;67271;59.120;37.970;2023-05-10T12:21:25;100738.97;;;20.78;25.73
77867;BME280;67271;59.120;37.970;2023-05-10T12:23:52;100734.97;;;20.69;26.06
77867;BME280;67271;59.120;37.970;2023-05-10T12:26:22;100731.13;;;20.70;25.96
77867;BME280;67271;59.120;37.970;2023-05-10T12:28:48;100746.81;;;20.69;25.81
77867;BME280;67271;59.120;37.970;2023-05-10T12:31:14;100741.28;;;20.53;26.13
77867;BME280;67271;59.120;37.970;2023-05-10T12:33:42;100738.38;;;20.31;26.08
77867;BME280;67271;59.120;37.970;2023-05-10T12:36:13;100736.66;;;20.13;26.11
77867;BME280;67271;59.120;37.970;2023-05-10T12:38:44;100731.84;;;20.20;26.16
77867;BME280;67271;59.120;37.970;2023-05-10T12:41:17;100731.16;;;20.13;26.01
77867;BME280;67271;59.120;37.970;2023-05-10T12:43:43;100723.09;;;20.06;26.16
77867;BME280;67271;59.120;37.970;2023-05-10T12:46:14;100723.31;;;20.05;26.40
77867;BME280;67271;59.120;37.970;2023-05-10T12:48:41;100725.94;;;20.00;26.28
77867;BME280;67271;59.120;37.970;2023-05-10T12:51:08;100726.00;;;19.88;26.04
77867;BME280;67271;59.120;37.970;2023-05-10T12:53:42;100728.91;;;19.70;26.21
77867;BME280;67271;59.120;37.970;2023-05-10T12:56:11;100723.81;;;19.62;26.31
77867;BME280;67271;59.120;37.970;2023-05-10T12:58:37;100724.50;;;19.46;26.42
77867;BME280;67271;59.120;37.970;2023-05-10T13:01:04;100720.09;;;19.33;26.64
77867;BME280;67271;59.120;37.970;2023-05-10T13:03:33;100726.06;;;19.30;26.43
77867;BME280;67271;59.120;37.970;2023-05-10T13:05:59;100715.06;;;19.42;26.48
77867;BME280;67271;59.120;37.970;2023-05-10T13:08:28;100715.81;;;19.49;26.60
77867;BME280;67271;59.120;37.970;2023-05-10T13:11:02;100714.75;;;19.50;26.38
77867;BME280;67271;59.120;37.970;2023-05-10T13:13:28;100715.44;;;19.45;26.37
77867;BME280;67271;59.120;37.970;2023-05-10T13:15:54;100712.94;;;19.55;26.25